sensor_id;sensor_type;location;lat;lon;timestamp;P1;durP1;ratioP1;P2;durP2;ratioP2
579;SDS011;276;48.392;9.950;2022-08-02T00:00:12;3.60;;;3.30;;
579;SDS011;276;48.392;9.950;2022-08-02T00:02:42;3.70;;;3.40;;
579;SDS011;276;48.392;9.950;2022-08-02T00:05:10;3.70;;;3.50;;
579;SDS011;276;48.392;9.950;2022-08-02T00:07:39;3.80;;;3.50;;
579;SDS011;276;48.392;9.950;2022-08-02T00:10:06;4.57;;;4.27;;
579;SDS011;276;48.392;9.950;2022-08-02T00:12:35;4.20;;;3.90;;
579;SDS011;276;48.392;9.950;2022-08-02T00:15:01;4.80;;;4.20;;
579;SDS011;276;48.392;9.950;2022-08-02T00:17:29;4.60;;;4.30;;
579;SDS011;276;48.392;9.950;2022-08-02T00:19:55;4.80;;;4.10;;
579;SDS011;276;48.392;9.950;2022-08-02T00:22:20;4.93;;;4.43;;
579;SDS011;276;48.392;9.950;2022-08-02T00:24:46;3.80;;;3.60;;
579;SDS011;276;48.392;9.950;2022-08-02T00:27:11;3.83;;;3.53;;
579;SDS011;276;48.392;9.950;2022-08-02T00:29:39;3.80;;;3.30;;
579;SDS011;276;48.392;9.950;2022-08-02T00:32:05;3.40;;;3.10;;
579;SDS011;276;48.392;9.950;2022-08-02T00:34:31;3.50;;;3.20;;
579;SDS011;276;48.392;9.950;2022-08-02T00:36:58;4.03;;;3.50;;
579;SDS011;276;48.392;9.950;2022-08-02T00:39:24;5.13;;;3.40;;
579;SDS011;276;48.392;9.950;2022-08-02T00:41:50;3.90;;;3.60;;
579;SDS011;276;48.392;9.950;2022-08-02T00:44:19;3.00;;;2.80;;
579;SDS011;276;48.392;9.950;2022-08-02T00:46:45;4.07;;;3.43;;
579;SDS011;276;48.392;9.950;2022-08-02T00:49:11;3.80;;;3.60;;
579;SDS011;276;48.392;9.950;2022-08-02T00:51:38;3.50;;;2.90;;
579;SDS011;276;48.392;9.950;2022-08-02T00:54:04;4.37;;;3.97;;
579;SDS011;276;48.392;9.950;2022-08-02T00:56:32;3.37;;;2.70;;
579;SDS011;276;48.392;9.950;2022-08-02T00:58:59;2.50;;;2.30;;
579;SDS011;276;48.392;9.950;2022-08-02T01:01:27;3.77;;;3.47;;
579;SDS011;276;48.392;9.950;2022-08-02T01:04:08;3.83;;;3.53;;
579;SDS011;276;48.392;9.950;2022-08-02T01:06:37;4.50;;;2.93;;
579;SDS011;276;48.392;9.950;2022-08-02T01:09:05;3.33;;;3.10;;
579;SDS011;276;48.392;9.950;2022-08-02T01:11:34;3.50;;;3.20;;
579;SDS011;276;48.392;9.950;2022-08-02T01:14:06;4.30;;;4.00;;
579;SDS011;276;48.392;9.950;2022-08-02T01:16:38;3.70;;;3.40;;
579;SDS011;276;48.392;9.950;2022-08-02T01:22:18;6.33;;;5.83;;
579;SDS011;276;48.392;9.950;2022-08-02T01:29:57;7.97;;;7.27;;
579;SDS011;276;48.392;9.950;2022-08-02T01:32:27;10.43;;;8.73;;
579;SDS011;276;48.392;9.950;2022-08-02T01:40:21;9.10;;;8.37;;
579;SDS011;276;48.392;9.950;2022-08-02T01:42:52;12.13;;;10.93;;
579;SDS011;276;48.392;9.950;2022-08-02T01:45:23;11.97;;;10.73;;
579;SDS011;276;48.392;9.950;2022-08-02T01:47:51;10.83;;;9.93;;
579;SDS011;276;48.392;9.950;2022-08-02T01:50:20;12.87;;;11.77;;
579;SDS011;276;48.392;9.950;2022-08-02T01:52:50;12.50;;;11.30;;
579;SDS011;276;48.392;9.950;2022-08-02T01:55:22;14.33;;;13.13;;
579;SDS011;276;48.392;9.950;2022-08-02T01:57:58;12.73;;;11.43;;
579;SDS011;276;48.392;9.950;2022-08-02T02:00:30;14.00;;;12.70;;
579;SDS011;276;48.392;9.950;2022-08-02T02:02:58;12.40;;;11.33;;
579;SDS011;276;48.392;9.950;2022-08-02T02:05:26;14.30;;;12.90;;
579;SDS011;276;48.392;9.950;2022-08-02T02:07:56;13.00;;;11.90;;
579;SDS011;276;48.392;9.950;2022-08-02T02:10:25;12.67;;;11.67;;
579;SDS011;276;48.392;9.950;2022-08-02T02:12:53;14.30;;;13.10;;
579;SDS011;276;48.392;9.950;2022-08-02T02:15:22;13.60;;;12.57;;
579;SDS011;276;48.392;9.950;2022-08-02T02:17:49;13.23;;;11.90;;
579;SDS011;276;48.392;9.950;2022-08-02T02:20:19;13.97;;;12.87;;
579;SDS011;276;48.392;9.950;2022-08-02T02:22:45;14.60;;;13.40;;
579;SDS011;276;48.392;9.950;2022-08-02T02:25:12;12.57;;;11.67;;
579;SDS011;276;48.392;9.950;2022-08-02T02:27:43;12.23;;;11.33;;
579;SDS011;276;48.392;9.950;2022-08-02T02:30:30;13.43;;;12.43;;
579;SDS011;276;48.392;9.950;2022-08-02T02:32:58;12.80;;;11.80;;
579;SDS011;276;48.392;9.950;2022-08-02T02:35:26;12.70;;;11.60;;
579;SDS011;276;48.392;9.950;2022-08-02T02:37:54;14.03;;;11.77;;
579;SDS011;276;48.392;9.950;2022-08-02T02:40:25;12.57;;;11.67;;
579;SDS011;276;48.392;9.950;2022-08-02T02:42:55;13.73;;;12.50;;
579;SDS011;276;48.392;9.950;2022-08-02T02:45:23;11.60;;;10.80;;
579;SDS011;276;48.392;9.950;2022-08-02T02:47:53;11.30;;;10.40;;
579;SDS011;276;48.392;9.950;2022-08-02T02:50:19;13.40;;;12.27;;
579;SDS011;276;48.392;9.950;2022-08-02T02:52:47;13.60;;;12.30;;
579;SDS011;276;48.392;9.950;2022-08-02T02:55:16;12.10;;;11.13;;
579;SDS011;276;48.392;9.950;2022-08-02T02:57:43;12.77;;;11.77;;
579;SDS011;276;48.392;9.950;2022-08-02T03:00:10;12.20;;;11.20;;
579;SDS011;276;48.392;9.950;2022-08-02T03:02:37;10.73;;;9.93;;
579;SDS011;276;48.392;9.950;2022-08-02T03:05:09;12.20;;;11.07;;
579;SDS011;276;48.392;9.950;2022-08-02T03:07:36;10.40;;;9.50;;
579;SDS011;276;48.392;9.950;2022-08-02T03:10:03;9.23;;;8.53;;
579;SDS011;276;48.392;9.950;2022-08-02T03:12:30;11.07;;;10.17;;
579;SDS011;276;48.392;9.950;2022-08-02T03:14:59;12.47;;;11.27;;
579;SDS011;276;48.392;9.950;2022-08-02T03:20:24;10.00;;;9.07;;
579;SDS011;276;48.392;9.950;2022-08-02T03:22:49;11.93;;;11.03;;
579;SDS011;276;48.392;9.950;2022-08-02T03:25:15;10.80;;;9.70;;
579;SDS011;276;48.392;9.950;2022-08-02T03:27:42;10.80;;;9.90;;
579;SDS011;276;48.392;9.950;2022-08-02T03:30:08;9.90;;;9.20;;
579;SDS011;276;48.392;9.950;2022-08-02T03:32:35;10.30;;;9.50;;
579;SDS011;276;48.392;9.950;2022-08-02T03:35:05;10.10;;;9.40;;
579;SDS011;276;48.392;9.950;2022-08-02T03:37:37;9.97;;;9.07;;
579;SDS011;276;48.392;9.950;2022-08-02T03:40:04;10.70;;;9.70;;
579;SDS011;276;48.392;9.950;2022-08-02T03:42:32;9.43;;;8.63;;
579;SDS011;276;48.392;9.950;2022-08-02T03:45:01;8.83;;;8.13;;
579;SDS011;276;48.392;9.950;2022-08-02T03:47:28;10.43;;;9.63;;
579;SDS011;276;48.392;9.950;2022-08-02T03:49:56;8.93;;;8.17;;
579;SDS011;276;48.392;9.950;2022-08-02T03:52:23;10.43;;;9.67;;
579;SDS011;276;48.392;9.950;2022-08-02T03:54:50;9.30;;;8.60;;
579;SDS011;276;48.392;9.950;2022-08-02T03:57:18;10.50;;;9.70;;
579;SDS011;276;48.392;9.950;2022-08-02T03:59:44;8.80;;;8.20;;
579;SDS011;276;48.392;9.950;2022-08-02T04:02:13;9.93;;;9.23;;
579;SDS011;276;48.392;9.950;2022-08-02T04:04:38;9.00;;;8.30;;
579;SDS011;276;48.392;9.950;2022-08-02T04:07:04;8.77;;;8.17;;
579;SDS011;276;48.392;9.950;2022-08-02T04:09:30;9.33;;;8.73;;
579;SDS011;276;48.392;9.950;2022-08-02T04:11:56;9.47;;;8.77;;
579;SDS011;276;48.392;9.950;2022-08-02T04:14:22;8.73;;;8.13;;
579;SDS011;276;48.392;9.950;2022-08-02T04:16:51;9.80;;;9.00;;
579;SDS011;276;48.392;9.950;2022-08-02T04:19:27;9.37;;;8.67;;
579;SDS011;276;48.392;9.950;2022-08-02T04:22:08;8.53;;;7.93;;
579;SDS011;276;48.392;9.950;2022-08-02T04:24:44;8.50;;;7.70;;
579;SDS011;276;48.392;9.950;2022-08-02T04:27:14;9.20;;;8.50;;
579;SDS011;276;48.392;9.950;2022-08-02T04:29:41;9.13;;;8.43;;
579;SDS011;276;48.392;9.950;2022-08-02T04:32:07;9.53;;;8.10;;
579;SDS011;276;48.392;9.950;2022-08-02T04:34:34;7.97;;;7.37;;
579;SDS011;276;48.392;9.950;2022-08-02T04:37:04;8.10;;;7.50;;
579;SDS011;276;48.392;9.950;2022-08-02T04:39:30;8.83;;;8.13;;
579;SDS011;276;48.392;9.950;2022-08-02T04:41:55;9.40;;;8.80;;
579;SDS011;276;48.392;9.950;2022-08-02T04:44:23;8.10;;;7.50;;
579;SDS011;276;48.392;9.950;2022-08-02T04:46:49;8.50;;;7.73;;
579;SDS011;276;48.392;9.950;2022-08-02T04:49:16;9.03;;;8.23;;
579;SDS011;276;48.392;9.950;2022-08-02T04:51:42;9.57;;;8.77;;
579;SDS011;276;48.392;9.950;2022-08-02T04:54:08;8.70;;;8.00;;
579;SDS011;276;48.392;9.950;2022-08-02T04:56:37;8.00;;;7.40;;
579;SDS011;276;48.392;9.950;2022-08-02T04:59:05;9.13;;;8.23;;
579;SDS011;276;48.392;9.950;2022-08-02T05:01:34;7.97;;;7.37;;
579;SDS011;276;48.392;9.950;2022-08-02T05:03:59;7.80;;;7.20;;
579;SDS011;276;48.392;9.950;2022-08-02T05:06:27;7.43;;;6.93;;
579;SDS011;276;48.392;9.950;2022-08-02T05:08:53;7.53;;;6.93;;
579;SDS011;276;48.392;9.950;2022-08-02T05:11:21;7.50;;;7.00;;
579;SDS011;276;48.392;9.950;2022-08-02T05:13:48;7.40;;;6.90;;
579;SDS011;276;48.392;9.950;2022-08-02T05:16:16;8.20;;;7.50;;
579;SDS011;276;48.392;9.950;2022-08-02T05:18:47;7.57;;;7.00;;
579;SDS011;276;48.392;9.950;2022-08-02T05:21:15;7.23;;;6.73;;
579;SDS011;276;48.392;9.950;2022-08-02T05:23:40;8.07;;;7.47;;
579;SDS011;276;48.392;9.950;2022-08-02T05:26:06;7.23;;;6.70;;
579;SDS011;276;48.392;9.950;2022-08-02T05:28:32;6.63;;;6.03;;
579;SDS011;276;48.392;9.950;2022-08-02T05:30:59;6.07;;;5.67;;
579;SDS011;276;48.392;9.950;2022-08-02T05:33:25;6.87;;;6.47;;
579;SDS011;276;48.392;9.950;2022-08-02T05:35:58;6.87;;;6.47;;
579;SDS011;276;48.392;9.950;2022-08-02T05:38:26;6.83;;;6.30;;
579;SDS011;276;48.392;9.950;2022-08-02T05:40:55;6.47;;;5.97;;
579;SDS011;276;48.392;9.950;2022-08-02T05:43:22;7.33;;;6.73;;
579;SDS011;276;48.392;9.950;2022-08-02T05:45:50;7.60;;;6.90;;
579;SDS011;276;48.392;9.950;2022-08-02T05:48:17;8.53;;;7.87;;
579;SDS011;276;48.392;9.950;2022-08-02T05:50:43;7.17;;;6.67;;
579;SDS011;276;48.392;9.950;2022-08-02T05:53:23;6.57;;;6.17;;
579;SDS011;276;48.392;9.950;2022-08-02T06:01:44;6.70;;;6.20;;
579;SDS011;276;48.392;9.950;2022-08-02T06:04:13;6.10;;;5.70;;
579;SDS011;276;48.392;9.950;2022-08-02T06:06:50;6.37;;;5.87;;
579;SDS011;276;48.392;9.950;2022-08-02T06:09:22;6.53;;;6.13;;
579;SDS011;276;48.392;9.950;2022-08-02T06:11:50;7.13;;;6.63;;
579;SDS011;276;48.392;9.950;2022-08-02T06:14:17;6.97;;;6.37;;
579;SDS011;276;48.392;9.950;2022-08-02T06:16:44;6.93;;;6.53;;
579;SDS011;276;48.392;9.950;2022-08-02T06:19:10;7.13;;;6.63;;
579;SDS011;276;48.392;9.950;2022-08-02T06:21:40;7.17;;;6.67;;
579;SDS011;276;48.392;9.950;2022-08-02T06:24:09;7.03;;;6.60;;
579;SDS011;276;48.392;9.950;2022-08-02T06:26:36;6.80;;;6.30;;
579;SDS011;276;48.392;9.950;2022-08-02T06:29:02;6.00;;;5.60;;
579;SDS011;276;48.392;9.950;2022-08-02T06:31:28;6.77;;;6.17;;
579;SDS011;276;48.392;9.950;2022-08-02T06:33:57;7.47;;;6.97;;
579;SDS011;276;48.392;9.950;2022-08-02T06:39:39;6.83;;;6.43;;
579;SDS011;276;48.392;9.950;2022-08-02T06:42:25;7.80;;;7.13;;
579;SDS011;276;48.392;9.950;2022-08-02T06:45:19;6.87;;;6.40;;
579;SDS011;276;48.392;9.950;2022-08-02T06:47:44;6.43;;;5.93;;
579;SDS011;276;48.392;9.950;2022-08-02T06:50:10;5.93;;;5.47;;
579;SDS011;276;48.392;9.950;2022-08-02T06:52:36;6.10;;;5.50;;
579;SDS011;276;48.392;9.950;2022-08-02T06:55:03;6.80;;;6.20;;
579;SDS011;276;48.392;9.950;2022-08-02T06:57:29;6.63;;;6.10;;
579;SDS011;276;48.392;9.950;2022-08-02T06:59:56;7.73;;;5.90;;
579;SDS011;276;48.392;9.950;2022-08-02T07:02:31;6.93;;;6.47;;
579;SDS011;276;48.392;9.950;2022-08-02T07:04:58;11.80;;;6.97;;
579;SDS011;276;48.392;9.950;2022-08-02T07:07:24;5.97;;;5.57;;
579;SDS011;276;48.392;9.950;2022-08-02T07:09:54;6.93;;;6.00;;
579;SDS011;276;48.392;9.950;2022-08-02T07:12:24;6.50;;;6.10;;
579;SDS011;276;48.392;9.950;2022-08-02T07:14:50;5.80;;;5.40;;
579;SDS011;276;48.392;9.950;2022-08-02T07:17:16;6.30;;;5.67;;
579;SDS011;276;48.392;9.950;2022-08-02T07:19:44;7.00;;;6.50;;
579;SDS011;276;48.392;9.950;2022-08-02T07:22:12;6.00;;;5.50;;
579;SDS011;276;48.392;9.950;2022-08-02T07:24:38;5.60;;;5.30;;
579;SDS011;276;48.392;9.950;2022-08-02T07:27:04;6.03;;;5.50;;
579;SDS011;276;48.392;9.950;2022-08-02T07:29:29;6.77;;;6.27;;
579;SDS011;276;48.392;9.950;2022-08-02T07:31:55;6.83;;;6.33;;
579;SDS011;276;48.392;9.950;2022-08-02T07:34:21;7.80;;;7.10;;
579;SDS011;276;48.392;9.950;2022-08-02T07:36:46;7.53;;;6.90;;
579;SDS011;276;48.392;9.950;2022-08-02T07:39:14;6.33;;;5.93;;
579;SDS011;276;48.392;9.950;2022-08-02T07:41:42;7.30;;;6.80;;
579;SDS011;276;48.392;9.950;2022-08-02T07:44:11;7.03;;;6.60;;
579;SDS011;276;48.392;9.950;2022-08-02T07:46:37;8.00;;;7.30;;
579;SDS011;276;48.392;9.950;2022-08-02T07:49:02;6.70;;;6.20;;
579;SDS011;276;48.392;9.950;2022-08-02T07:51:33;7.90;;;7.40;;
579;SDS011;276;48.392;9.950;2022-08-02T07:54:01;7.80;;;7.20;;
579;SDS011;276;48.392;9.950;2022-08-02T07:56:29;7.07;;;6.50;;
579;SDS011;276;48.392;9.950;2022-08-02T07:58:55;6.77;;;6.37;;
579;SDS011;276;48.392;9.950;2022-08-02T08:01:20;6.30;;;5.90;;
579;SDS011;276;48.392;9.950;2022-08-02T08:03:48;7.30;;;6.70;;
579;SDS011;276;48.392;9.950;2022-08-02T08:06:14;6.13;;;5.73;;
579;SDS011;276;48.392;9.950;2022-08-02T08:08:42;7.53;;;6.80;;
579;SDS011;276;48.392;9.950;2022-08-02T08:11:07;6.60;;;6.20;;
579;SDS011;276;48.392;9.950;2022-08-02T08:13:35;6.40;;;5.90;;
579;SDS011;276;48.392;9.950;2022-08-02T08:16:01;6.60;;;5.60;;
579;SDS011;276;48.392;9.950;2022-08-02T08:18:30;5.23;;;4.83;;
579;SDS011;276;48.392;9.950;2022-08-02T08:20:56;5.97;;;5.57;;
579;SDS011;276;48.392;9.950;2022-08-02T08:23:21;4.80;;;4.40;;
579;SDS011;276;48.392;9.950;2022-08-02T08:25:47;5.43;;;5.13;;
579;SDS011;276;48.392;9.950;2022-08-02T08:28:15;5.13;;;4.50;;
579;SDS011;276;48.392;9.950;2022-08-02T08:30:41;4.50;;;4.20;;
579;SDS011;276;48.392;9.950;2022-08-02T08:33:06;5.40;;;5.00;;
579;SDS011;276;48.392;9.950;2022-08-02T08:35:33;5.23;;;4.80;;
579;SDS011;276;48.392;9.950;2022-08-02T08:37:59;4.70;;;4.40;;
579;SDS011;276;48.392;9.950;2022-08-02T08:40:24;5.03;;;4.70;;
579;SDS011;276;48.392;9.950;2022-08-02T08:42:52;4.50;;;4.10;;
579;SDS011;276;48.392;9.950;2022-08-02T08:45:20;6.03;;;5.30;;
579;SDS011;276;48.392;9.950;2022-08-02T08:47:47;5.30;;;3.97;;
579;SDS011;276;48.392;9.950;2022-08-02T08:50:22;3.90;;;3.60;;
579;SDS011;276;48.392;9.950;2022-08-02T08:52:52;4.87;;;4.37;;
579;SDS011;276;48.392;9.950;2022-08-02T08:55:18;4.07;;;3.77;;
579;SDS011;276;48.392;9.950;2022-08-02T08:57:50;4.37;;;3.97;;
579;SDS011;276;48.392;9.950;2022-08-02T09:00:19;4.20;;;3.90;;
579;SDS011;276;48.392;9.950;2022-08-02T09:02:47;3.40;;;3.20;;
579;SDS011;276;48.392;9.950;2022-08-02T09:05:14;3.60;;;3.30;;
579;SDS011;276;48.392;9.950;2022-08-02T09:07:41;4.40;;;3.70;;
579;SDS011;276;48.392;9.950;2022-08-02T09:11:11;3.67;;;3.37;;
579;SDS011;276;48.392;9.950;2022-08-02T09:13:12;4.23;;;3.93;;
579;SDS011;276;48.392;9.950;2022-08-02T09:15:44;4.20;;;3.00;;
579;SDS011;276;48.392;9.950;2022-08-02T09:18:17;4.07;;;3.60;;
579;SDS011;276;48.392;9.950;2022-08-02T09:20:58;3.33;;;3.03;;
579;SDS011;276;48.392;9.950;2022-08-02T09:23:32;3.80;;;3.50;;
579;SDS011;276;48.392;9.950;2022-08-02T09:26:05;3.60;;;2.80;;
579;SDS011;276;48.392;9.950;2022-08-02T09:28:36;3.40;;;2.67;;
579;SDS011;276;48.392;9.950;2022-08-02T09:31:07;2.53;;;2.33;;
579;SDS011;276;48.392;9.950;2022-08-02T09:33:36;2.50;;;2.33;;
579;SDS011;276;48.392;9.950;2022-08-02T09:38:35;2.43;;;2.27;;
579;SDS011;276;48.392;9.950;2022-08-02T09:41:02;3.33;;;2.90;;
579;SDS011;276;48.392;9.950;2022-08-02T09:48:47;3.03;;;2.67;;
579;SDS011;276;48.392;9.950;2022-08-02T09:51:21;2.70;;;2.50;;
579;SDS011;276;48.392;9.950;2022-08-02T09:53:48;2.50;;;2.37;;
579;SDS011;276;48.392;9.950;2022-08-02T09:56:16;2.33;;;2.20;;
579;SDS011;276;48.392;9.950;2022-08-02T09:58:42;2.60;;;2.40;;
579;SDS011;276;48.392;9.950;2022-08-02T10:01:11;2.90;;;2.63;;
579;SDS011;276;48.392;9.950;2022-08-02T10:04:01;3.10;;;2.67;;
579;SDS011;276;48.392;9.950;2022-08-02T10:06:29;2.57;;;2.40;;
579;SDS011;276;48.392;9.950;2022-08-02T10:08:55;2.23;;;2.13;;
579;SDS011;276;48.392;9.950;2022-08-02T10:11:22;2.57;;;2.40;;
579;SDS011;276;48.392;9.950;2022-08-02T10:13:49;2.53;;;2.33;;
579;SDS011;276;48.392;9.950;2022-08-02T10:16:19;2.33;;;2.13;;
579;SDS011;276;48.392;9.950;2022-08-02T10:18:50;2.93;;;2.27;;
579;SDS011;276;48.392;9.950;2022-08-02T10:24:08;2.37;;;2.03;;
579;SDS011;276;48.392;9.950;2022-08-02T10:26:36;2.03;;;1.93;;
579;SDS011;276;48.392;9.950;2022-08-02T10:29:07;1.80;;;1.70;;
579;SDS011;276;48.392;9.950;2022-08-02T10:31:48;5.27;;;1.93;;
579;SDS011;276;48.392;9.950;2022-08-02T10:34:20;1.80;;;1.70;;
579;SDS011;276;48.392;9.950;2022-08-02T10:36:51;2.70;;;2.40;;
579;SDS011;276;48.392;9.950;2022-08-02T10:39:18;2.33;;;1.80;;
579;SDS011;276;48.392;9.950;2022-08-02T10:41:47;2.10;;;2.00;;
579;SDS011;276;48.392;9.950;2022-08-02T10:49:58;2.03;;;1.90;;
579;SDS011;276;48.392;9.950;2022-08-02T10:52:28;2.90;;;2.60;;
579;SDS011;276;48.392;9.950;2022-08-02T11:00:10;2.30;;;2.20;;
579;SDS011;276;48.392;9.950;2022-08-02T11:02:49;2.20;;;2.10;;
579;SDS011;276;48.392;9.950;2022-08-02T11:13:00;2.63;;;2.43;;
579;SDS011;276;48.392;9.950;2022-08-02T11:15:26;3.03;;;2.77;;
579;SDS011;276;48.392;9.950;2022-08-02T11:17:53;2.27;;;2.07;;
579;SDS011;276;48.392;9.950;2022-08-02T11:20:23;2.23;;;2.13;;
579;SDS011;276;48.392;9.950;2022-08-02T11:22:52;2.27;;;2.17;;
579;SDS011;276;48.392;9.950;2022-08-02T11:25:41;2.20;;;2.10;;
579;SDS011;276;48.392;9.950;2022-08-02T11:28:08;2.63;;;2.40;;
579;SDS011;276;48.392;9.950;2022-08-02T11:30:35;1.90;;;1.80;;
579;SDS011;276;48.392;9.950;2022-08-02T11:33:03;1.90;;;1.80;;
579;SDS011;276;48.392;9.950;2022-08-02T11:35:34;2.50;;;2.30;;
579;SDS011;276;48.392;9.950;2022-08-02T11:40:59;2.60;;;2.07;;
579;SDS011;276;48.392;9.950;2022-08-02T11:43:27;2.20;;;2.00;;
579;SDS011;276;48.392;9.950;2022-08-02T11:45:55;1.97;;;1.87;;
579;SDS011;276;48.392;9.950;2022-08-02T11:48:36;1.60;;;1.50;;
579;SDS011;276;48.392;9.950;2022-08-02T11:51:07;2.63;;;2.07;;
579;SDS011;276;48.392;9.950;2022-08-02T11:56:07;1.60;;;1.50;;
579;SDS011;276;48.392;9.950;2022-08-02T11:58:34;1.90;;;1.80;;
579;SDS011;276;48.392;9.950;2022-08-02T12:01:03;2.07;;;1.97;;
579;SDS011;276;48.392;9.950;2022-08-02T12:03:35;2.07;;;1.87;;
579;SDS011;276;48.392;9.950;2022-08-02T12:06:02;2.00;;;1.90;;
579;SDS011;276;48.392;9.950;2022-08-02T12:08:29;3.40;;;1.80;;
579;SDS011;276;48.392;9.950;2022-08-02T12:11:01;1.60;;;1.50;;
579;SDS011;276;48.392;9.950;2022-08-02T12:13:42;2.10;;;1.77;;
579;SDS011;276;48.392;9.950;2022-08-02T12:16:09;1.77;;;1.67;;
579;SDS011;276;48.392;9.950;2022-08-02T12:18:55;3.00;;;1.70;;
579;SDS011;276;48.392;9.950;2022-08-02T12:21:41;1.80;;;1.70;;
579;SDS011;276;48.392;9.950;2022-08-02T12:24:07;2.57;;;1.67;;
579;SDS011;276;48.392;9.950;2022-08-02T12:26:46;1.47;;;1.37;;
579;SDS011;276;48.392;9.950;2022-08-02T12:29:12;1.97;;;1.77;;
579;SDS011;276;48.392;9.950;2022-08-02T12:31:44;2.37;;;2.17;;
579;SDS011;276;48.392;9.950;2022-08-02T12:34:16;1.90;;;1.80;;
579;SDS011;276;48.392;9.950;2022-08-02T12:37:27;1.87;;;1.77;;
579;SDS011;276;48.392;9.950;2022-08-02T12:42:08;1.87;;;1.57;;
579;SDS011;276;48.392;9.950;2022-08-02T12:44:57;2.23;;;1.97;;
579;SDS011;276;48.392;9.950;2022-08-02T12:47:25;1.90;;;1.80;;
579;SDS011;276;48.392;9.950;2022-08-02T12:52:37;1.70;;;1.60;;
579;SDS011;276;48.392;9.950;2022-08-02T12:55:24;2.80;;;1.90;;
579;SDS011;276;48.392;9.950;2022-08-02T12:57:59;1.90;;;1.80;;
579;SDS011;276;48.392;9.950;2022-08-02T13:00:28;1.93;;;1.83;;
579;SDS011;276;48.392;9.950;2022-08-02T13:03:01;2.50;;;2.20;;
579;SDS011;276;48.392;9.950;2022-08-02T13:05:30;1.60;;;1.50;;
579;SDS011;276;48.392;9.950;2022-08-02T13:07:59;1.60;;;1.50;;
579;SDS011;276;48.392;9.950;2022-08-02T13:10:28;2.80;;;2.00;;
579;SDS011;276;48.392;9.950;2022-08-02T13:12:54;2.10;;;2.00;;
579;SDS011;276;48.392;9.950;2022-08-02T13:15:20;1.83;;;1.73;;
579;SDS011;276;48.392;9.950;2022-08-02T13:17:46;1.90;;;1.80;;
579;SDS011;276;48.392;9.950;2022-08-02T13:20:12;2.13;;;1.90;;
579;SDS011;276;48.392;9.950;2022-08-02T13:22:39;2.07;;;1.90;;
579;SDS011;276;48.392;9.950;2022-08-02T13:25:05;2.00;;;1.90;;
579;SDS011;276;48.392;9.950;2022-08-02T13:27:33;3.20;;;2.07;;
579;SDS011;276;48.392;9.950;2022-08-02T13:30:02;4.00;;;2.33;;
579;SDS011;276;48.392;9.950;2022-08-02T13:32:28;3.43;;;1.80;;
579;SDS011;276;48.392;9.950;2022-08-02T13:34:55;1.57;;;1.47;;
579;SDS011;276;48.392;9.950;2022-08-02T13:37:21;1.80;;;1.70;;
579;SDS011;276;48.392;9.950;2022-08-02T13:39:50;2.77;;;2.20;;
579;SDS011;276;48.392;9.950;2022-08-02T13:42:18;2.03;;;1.93;;
579;SDS011;276;48.392;9.950;2022-08-02T13:44:44;2.27;;;2.17;;
579;SDS011;276;48.392;9.950;2022-08-02T13:47:09;1.83;;;1.73;;
579;SDS011;276;48.392;9.950;2022-08-02T13:49:37;3.00;;;2.00;;
579;SDS011;276;48.392;9.950;2022-08-02T13:52:03;2.37;;;2.17;;
579;SDS011;276;48.392;9.950;2022-08-02T13:54:30;2.03;;;1.80;;
579;SDS011;276;48.392;9.950;2022-08-02T13:56:58;1.80;;;1.70;;
579;SDS011;276;48.392;9.950;2022-08-02T13:59:26;2.80;;;2.60;;
579;SDS011;276;48.392;9.950;2022-08-02T14:01:54;2.90;;;1.80;;
579;SDS011;276;48.392;9.950;2022-08-02T14:04:21;1.70;;;1.60;;
579;SDS011;276;48.392;9.950;2022-08-02T14:06:50;1.93;;;1.83;;
579;SDS011;276;48.392;9.950;2022-08-02T14:09:18;3.80;;;2.00;;
579;SDS011;276;48.392;9.950;2022-08-02T14:11:44;2.13;;;1.90;;
579;SDS011;276;48.392;9.950;2022-08-02T14:14:10;2.13;;;1.93;;
579;SDS011;276;48.392;9.950;2022-08-02T14:16:36;2.00;;;1.80;;
579;SDS011;276;48.392;9.950;2022-08-02T14:19:04;4.10;;;1.60;;
579;SDS011;276;48.392;9.950;2022-08-02T14:21:29;2.00;;;1.60;;
579;SDS011;276;48.392;9.950;2022-08-02T14:23:55;2.10;;;1.90;;
579;SDS011;276;48.392;9.950;2022-08-02T14:26:23;1.87;;;1.77;;
579;SDS011;276;48.392;9.950;2022-08-02T14:28:49;3.03;;;1.50;;
579;SDS011;276;48.392;9.950;2022-08-02T14:31:16;2.10;;;2.00;;
579;SDS011;276;48.392;9.950;2022-08-02T14:33:42;1.93;;;1.83;;
579;SDS011;276;48.392;9.950;2022-08-02T14:36:12;1.60;;;1.60;;
579;SDS011;276;48.392;9.950;2022-08-02T14:38:38;1.67;;;1.57;;
579;SDS011;276;48.392;9.950;2022-08-02T14:41:04;1.73;;;1.63;;
579;SDS011;276;48.392;9.950;2022-08-02T14:43:30;1.97;;;1.87;;
579;SDS011;276;48.392;9.950;2022-08-02T14:46:14;2.27;;;2.17;;
579;SDS011;276;48.392;9.950;2022-08-02T14:48:39;2.10;;;1.70;;
579;SDS011;276;48.392;9.950;2022-08-02T14:51:05;1.87;;;1.60;;
579;SDS011;276;48.392;9.950;2022-08-02T14:53:33;2.00;;;1.90;;
579;SDS011;276;48.392;9.950;2022-08-02T14:55:59;2.40;;;1.87;;
579;SDS011;276;48.392;9.950;2022-08-02T14:58:24;1.70;;;1.57;;
579;SDS011;276;48.392;9.950;2022-08-02T15:00:52;2.40;;;2.20;;
579;SDS011;276;48.392;9.950;2022-08-02T15:03:21;1.80;;;1.70;;
579;SDS011;276;48.392;9.950;2022-08-02T15:05:46;1.73;;;1.63;;
579;SDS011;276;48.392;9.950;2022-08-02T15:08:14;2.17;;;2.07;;
579;SDS011;276;48.392;9.950;2022-08-02T15:10:42;4.30;;;2.10;;
579;SDS011;276;48.392;9.950;2022-08-02T15:13:09;2.53;;;2.10;;
579;SDS011;276;48.392;9.950;2022-08-02T15:15:37;2.10;;;2.00;;
579;SDS011;276;48.392;9.950;2022-08-02T15:18:05;1.97;;;1.87;;
579;SDS011;276;48.392;9.950;2022-08-02T15:20:35;1.97;;;1.87;;
579;SDS011;276;48.392;9.950;2022-08-02T15:23:03;2.00;;;1.80;;
579;SDS011;276;48.392;9.950;2022-08-02T15:25:29;2.30;;;2.20;;
579;SDS011;276;48.392;9.950;2022-08-02T15:27:57;2.00;;;1.80;;
579;SDS011;276;48.392;9.950;2022-08-02T15:30:23;2.30;;;2.07;;
579;SDS011;276;48.392;9.950;2022-08-02T15:32:48;1.90;;;1.80;;
579;SDS011;276;48.392;9.950;2022-08-02T15:35:16;1.83;;;1.73;;
579;SDS011;276;48.392;9.950;2022-08-02T15:37:42;1.80;;;1.37;;
579;SDS011;276;48.392;9.950;2022-08-02T15:40:08;2.10;;;2.00;;
579;SDS011;276;48.392;9.950;2022-08-02T15:42:34;2.40;;;2.30;;
579;SDS011;276;48.392;9.950;2022-08-02T15:44:59;2.00;;;1.90;;
579;SDS011;276;48.392;9.950;2022-08-02T15:47:25;2.23;;;2.03;;
579;SDS011;276;48.392;9.950;2022-08-02T15:49:51;1.90;;;1.80;;
579;SDS011;276;48.392;9.950;2022-08-02T15:52:16;2.43;;;2.23;;
579;SDS011;276;48.392;9.950;2022-08-02T15:54:42;1.90;;;1.80;;
579;SDS011;276;48.392;9.950;2022-08-02T15:57:10;2.47;;;2.10;;
579;SDS011;276;48.392;9.950;2022-08-02T15:59:36;2.00;;;1.90;;
579;SDS011;276;48.392;9.950;2022-08-02T16:02:01;1.73;;;1.63;;
579;SDS011;276;48.392;9.950;2022-08-02T16:04:30;2.30;;;2.20;;
579;SDS011;276;48.392;9.950;2022-08-02T16:06:56;2.07;;;1.93;;
579;SDS011;276;48.392;9.950;2022-08-02T16:09:22;2.60;;;1.70;;
579;SDS011;276;48.392;9.950;2022-08-02T16:11:48;2.20;;;1.80;;
579;SDS011;276;48.392;9.950;2022-08-02T16:14:13;2.50;;;1.93;;
579;SDS011;276;48.392;9.950;2022-08-02T16:16:39;1.63;;;1.50;;
579;SDS011;276;48.392;9.950;2022-08-02T16:19:04;1.87;;;1.77;;
579;SDS011;276;48.392;9.950;2022-08-02T16:21:31;2.30;;;1.40;;
579;SDS011;276;48.392;9.950;2022-08-02T16:23:59;1.93;;;1.63;;
579;SDS011;276;48.392;9.950;2022-08-02T16:26:24;2.00;;;1.70;;
579;SDS011;276;48.392;9.950;2022-08-02T16:28:53;1.80;;;1.70;;
579;SDS011;276;48.392;9.950;2022-08-02T16:31:19;1.70;;;1.60;;
579;SDS011;276;48.392;9.950;2022-08-02T16:33:47;1.80;;;1.70;;
579;SDS011;276;48.392;9.950;2022-08-02T16:36:15;1.60;;;1.50;;
579;SDS011;276;48.392;9.950;2022-08-02T16:38:41;2.17;;;2.07;;
579;SDS011;276;48.392;9.950;2022-08-02T16:41:07;2.40;;;2.20;;
579;SDS011;276;48.392;9.950;2022-08-02T16:43:33;2.43;;;2.23;;
579;SDS011;276;48.392;9.950;2022-08-02T16:45:59;1.80;;;1.70;;
579;SDS011;276;48.392;9.950;2022-08-02T16:48:28;2.00;;;1.87;;
579;SDS011;276;48.392;9.950;2022-08-02T16:50:56;1.80;;;1.70;;
579;SDS011;276;48.392;9.950;2022-08-02T16:53:24;2.00;;;1.90;;
579;SDS011;276;48.392;9.950;2022-08-02T16:55:52;2.93;;;1.93;;